Time;durP1;ratioP1;P1;durP2;ratioP2;P2;SDS_P1;SDS_P2;PMS_P1;PMS_P2;Temp;Humidity;BMP_temperature;BMP_pressure;BME280_temperature;BME280_humidity;BME280_pressure;Samples;Min_cycle;Max_cycle;Signal;HPM_P1;HPM_P2
2023/12/15 00:01:37;;;;;;;21.52;11.82;;;;;;;4.86;100.00;102587.94;6201033;22;20039;-91
2023/12/15 00:04:03;;;;;;;31.88;12.93;;;;;;;4.85;100.00;102594.28;6251560;22;20365;-90
2023/12/15 00:06:30;;;;;;;30.97;13.73;;;;;;;4.82;100.00;102591.03;6251159;22;20015;-90
2023/12/15 00:09:01;;;;;;;34.15;13.10;;;;;;;4.86;100.00;102604.06;6251000;22;20418;-90
2023/12/15 00:11:29;;;;;;;28.67;14.05;;;;;;;4.84;100.00;102597.97;6226044;22;20022;-90
2023/12/15 00:13:57;;;;;;;27.83;14.20;;;;;;;4.86;100.00;102609.44;6251373;22;20008;-90
2023/12/15 00:16:27;;;;;;;30.73;13.90;;;;;;;4.89;100.00;102617.25;6250313;22;20110;-90
2023/12/15 00:18:55;;;;;;;37.13;14.43;;;;;;;4.84;100.00;102608.75;6251100;22;20012;-90
2023/12/15 00:21:20;;;;;;;32.05;14.13;;;;;;;4.92;100.00;102621.50;6225987;22;20350;-90
2023/12/15 00:23:48;;;;;;;32.33;15.13;;;;;;;4.87;100.00;102612.97;6276937;22;20084;-89
2023/12/15 00:26:16;;;;;;;32.40;15.25;;;;;;;4.86;100.00;102616.66;6225976;22;20043;-89
2023/12/15 00:28:44;;;;;;;35.28;15.20;;;;;;;4.91;100.00;102620.63;6250196;22;20094;-89
2023/12/15 00:31:12;;;;;;;35.20;15.63;;;;;;;4.87;100.00;102615.66;6249908;22;20094;-89
2023/12/15 00:33:48;;;;;;;35.10;15.32;;;;;;;4.89;100.00;102617.25;6277337;22;20015;-90
2023/12/15 00:36:13;;;;;;;31.58;15.27;;;;;;;4.85;100.00;102606.88;6226482;22;20016;-90
2023/12/15 00:38:39;;;;;;;37.45;16.48;;;;;;;4.87;100.00;102602.22;6250394;22;20008;-90
2023/12/15 00:41:04;;;;;;;38.77;15.70;;;;;;;4.90;100.00;102601.94;6277311;22;20008;-90
2023/12/15 00:43:32;;;;;;;31.67;14.80;;;;;;;4.96;100.00;102608.63;6277311;22;20368;-90
2023/12/15 00:46:00;;;;;;;42.08;15.93;;;;;;;4.94;100.00;102624.06;6250395;22;20145;-90
2023/12/15 00:48:29;;;;;;;33.85;15.43;;;;;;;5.00;100.00;102620.81;6250041;22;20015;-90
2023/12/15 00:51:02;;;;;;;39.90;15.73;;;;;;;4.99;100.00;102619.13;6225912;22;20015;-90
2023/12/15 00:53:32;;;;;;;37.28;17.10;;;;;;;5.03;100.00;102623.25;6250111;22;20114;-90
2023/12/15 00:56:00;;;;;;;41.28;15.85;;;;;;;5.07;100.00;102624.69;6250563;22;20011;-90
2023/12/15 00:58:38;;;;;;;37.55;15.95;;;;;;;5.05;100.00;102627.50;6277204;22;20071;-90
2023/12/15 01:01:04;;;;;;;41.63;15.57;;;;;;;5.04;100.00;102625.81;6250413;22;20008;-89
2023/12/15 01:03:30;;;;;;;34.93;15.63;;;;;;;5.04;100.00;102625.81;6249926;22;20050;-90
2023/12/15 01:05:59;;;;;;;40.22;16.42;;;;;;;5.09;100.00;102645.09;6251144;22;20243;-90
2023/12/15 01:08:26;;;;;;;38.50;16.77;;;;;;;5.12;100.00;102649.34;6250011;22;20003;-90
2023/12/15 01:10:52;;;;;;;39.25;16.00;;;;;;;5.09;100.00;102642.41;6250961;22;20015;-89
2023/12/15 01:13:19;;;;;;;40.27;17.00;;;;;;;5.15;100.00;102645.53;6250377;22;20538;-89
2023/12/15 01:15:45;;;;;;;42.47;17.38;;;;;;;5.11;100.00;102636.88;6249900;22;20026;-90
2023/12/15 01:18:28;;;;;;;47.50;16.70;;;;;;;5.11;100.00;102644.97;6249999;22;20481;-90
2023/12/15 01:21:01;;;;;;;39.90;16.48;;;;;;;5.14;100.00;102657.25;6250368;22;20091;-90
2023/12/15 01:23:29;;;;;;;36.80;15.23;;;;;;;5.13;100.00;102651.03;6250071;22;20090;-90
2023/12/15 01:25:56;;;;;;;40.85;17.67;;;;;;;5.10;100.00;102651.31;6250194;22;20018;-90
2023/12/15 01:28:24;;;;;;;36.88;16.27;;;;;;;5.16;100.00;102668.75;6251669;22;20011;-89
2023/12/15 01:30:52;;;;;;;41.08;15.90;;;;;;;5.09;100.00;102652.28;6201665;22;20014;-90
2023/12/15 01:33:20;;;;;;;39.65;16.40;;;;;;;5.14;100.00;102662.66;6253289;22;20078;-90
2023/12/15 01:35:48;;;;;;;35.08;15.25;;;;;;;5.12;100.00;102656.56;6254131;22;20034;-90
2023/12/15 01:38:14;;;;;;;35.63;15.38;;;;;;;5.10;100.00;102657.53;6252541;22;20095;-90
2023/12/15 01:40:41;;;;;;;36.23;15.90;;;;;;;5.09;100.00;102660.38;6250463;22;20012;-90
2023/12/15 01:43:09;;;;;;;32.72;14.75;;;;;;;5.08;100.00;102667.59;6226308;22;20437;-90
2023/12/15 01:45:35;;;;;;;36.33;15.57;;;;;;;5.09;100.00;102674.69;6251724;22;20057;-89
2023/12/15 01:48:02;;;;;;;37.75;15.52;;;;;;;5.08;100.00;102667.59;6251264;22;20012;-90
2023/12/15 01:50:34;;;;;;;43.08;16.55;;;;;;;5.10;100.00;102671.00;6251402;22;19999;-89
2023/12/15 01:53:00;;;;;;;34.10;15.15;;;;;;;5.06;100.00;102671.41;6227763;22;20012;-89
2023/12/15 01:55:30;;;;;;;36.83;16.25;;;;;;;5.11;100.00;102674.56;6252721;22;20012;-89
2023/12/15 01:57:56;;;;;;;34.72;15.20;;;;;;;5.07;100.00;102673.97;6227147;22;20016;-89
2023/12/15 02:00:29;;;;;;;34.75;15.63;;;;;;;5.10;100.00;102683.59;6227346;22;20016;-90
2023/12/15 02:02:59;;;;;;;35.97;15.40;;;;;;;5.14;100.00;102695.81;6251445;22;20003;-90
2023/12/15 02:05:34;;;;;;;41.03;16.35;;;;;;;5.15;100.00;102693.97;6251339;22;20012;-90
2023/12/15 02:08:00;;;;;;;35.67;15.33;;;;;;;5.12;100.00;102684.31;6278412;22;20079;-90
2023/12/15 02:10:28;;;;;;;36.90;16.02;;;;;;;5.13;100.00;102687.88;6278760;22;20456;-90
2023/12/15 02:12:53;;;;;;;35.15;15.80;;;;;;;5.16;100.00;102706.44;6279372;22;20045;-90
2023/12/15 02:15:19;;;;;;;38.30;16.43;;;;;;;5.18;100.00;102710.72;6226689;22;20016;-90
2023/12/15 02:17:44;;;;;;;35.13;15.47;;;;;;;5.20;100.00;102713.25;6278636;22;19999;-90
2023/12/15 02:20:19;;;;;;;35.53;16.25;;;;;;;5.22;100.00;102700.50;6226323;22;20320;-90
2023/12/15 02:22:44;;;;;;;36.53;15.50;;;;;;;5.20;100.00;102705.19;6251859;22;20011;-90
2023/12/15 02:25:18;;;;;;;37.97;16.08;;;;;;;5.15;100.00;102699.34;6251451;22;20020;-90
2023/12/15 02:27:45;;;;;;;37.85;15.90;;;;;;;5.15;100.00;102704.72;6251766;22;20014;-90
2023/12/15 02:30:21;;;;;;;37.72;16.35;;;;;;;5.17;100.00;102713.53;6251824;22;20012;-90
2023/12/15 02:32:47;;;;;;;40.08;16.23;;;;;;;5.17;100.00;102709.00;6252407;22;20123;-91
2023/12/15 02:35:14;;;;;;;44.93;17.17;;;;;;;5.21;100.00;102717.63;6278787;22;20090;-90
2023/12/15 02:37:40;;;;;;;45.70;18.17;;;;;;;5.17;100.00;102722.44;6252513;22;20326;-90
2023/12/15 02:40:06;;;;;;;44.33;16.48;;;;;;;5.16;100.00;102725.28;6251648;22;20016;-89
2023/12/15 02:42:34;;;;;;;38.28;16.70;;;;;;;5.20;100.00;102737.50;6251358;22;20007;-90
2023/12/15 02:45:13;;;;;;;46.87;16.80;;;;;;;5.19;100.00;102725.00;6226710;22;20012;-90
2023/12/15 02:47:41;;;;;;;48.88;17.58;;;;;;;5.25;100.00;102729.84;6227539;22;20476;-89
2023/12/15 02:50:12;;;;;;;44.45;17.02;;;;;;;5.26;100.00;102732.41;6226764;22;20015;-89
2023/12/15 02:52:37;;;;;;;46.30;17.27;;;;;;;5.27;100.00;102738.66;6279154;22;20003;-89
2023/12/15 02:55:03;;;;;;;47.50;17.47;;;;;;;5.32;100.00;102749.03;6250486;22;20022;-87
2023/12/15 02:57:29;;;;;;;50.72;17.27;;;;;;;5.29;100.00;102739.38;6250582;22;20090;-88
2023/12/15 02:59:54;;;;;;;50.67;17.13;;;;;;;5.31;100.00;102753.53;6278074;22;20004;-89
2023/12/15 03:02:23;;;;;;;56.38;18.15;;;;;;;5.32;100.00;102751.72;6250701;22;20008;-88
2023/12/15 03:04:54;;;;;;;50.47;17.30;;;;;;;5.32;100.00;102767.88;6226429;22;20023;-88
2023/12/15 03:07:19;;;;;;;50.65;16.95;;;;;;;5.34;100.00;102777.50;6251009;22;20418;-88
2023/12/15 03:09:50;;;;;;;57.93;18.23;;;;;;;5.36;100.00;102775.53;6250719;22;20012;-88
2023/12/15 03:12:20;;;;;;;58.90;18.27;;;;;;;5.37;100.00;102771.00;6278785;22;20010;-88
2023/12/15 03:14:45;;;;;;;57.28;18.88;;;;;;;5.38;100.00;102776.25;6251333;22;20422;-88
2023/12/15 03:17:20;;;;;;;55.47;18.53;;;;;;;5.38;100.00;102772.72;6251065;22;20010;-89
2023/12/15 03:19:46;;;;;;;60.17;18.63;;;;;;;5.40;100.00;102776.09;6251398;22;20008;-89
2023/12/15 03:22:13;;;;;;;51.60;17.90;;;;;;;5.39;100.00;102783.34;6251072;22;20000;-89
2023/12/15 03:24:39;;;;;;;64.13;19.08;;;;;;;5.40;100.00;102787.75;6250459;22;20330;-89
2023/12/15 03:27:11;;;;;;;66.93;19.70;;;;;;;5.43;100.00;102797.38;6250237;22;20046;-89
2023/12/15 03:29:41;;;;;;;58.03;17.90;;;;;;;5.43;100.00;102798.25;6250516;22;20022;-89
2023/12/15 03:32:24;;;;;;;60.17;18.10;;;;;;;5.42;100.00;102801.91;6225626;22;20012;-89
2023/12/15 03:34:58;;;;;;;60.80;19.55;;;;;;;5.44;100.00;102817.94;6250827;22;20016;-89
2023/12/15 03:37:29;;;;;;;66.60;19.50;;;;;;;5.45;100.00;102823.19;6277757;22;20014;-89
2023/12/15 03:39:57;;;;;;;57.47;18.63;;;;;;;5.45;100.00;102820.50;6250387;22;20468;-89
2023/12/15 03:42:25;;;;;;;63.07;20.30;;;;;;;5.45;100.00;102817.78;6250962;22;20008;-89
2023/12/15 03:44:50;;;;;;;61.20;19.42;;;;;;;5.47;100.00;102823.03;6250444;22;20091;-89
2023/12/15 03:47:16;;;;;;;66.25;19.52;;;;;;;5.48;100.00;102822.06;6249817;22;20047;-89
2023/12/15 03:49:45;;;;;;;73.70;19.75;;;;;;;5.49;100.00;102820.22;6250124;22;20410;-89
2023/12/15 03:52:13;;;;;;;72.30;20.90;;;;;;;5.52;100.00;102819.94;6276419;22;20004;-89
2023/12/15 03:54:45;;;;;;;74.65;20.23;;;;;;;5.50;100.00;102822.78;6250622;22;20346;-89
2023/12/15 03:57:14;;;;;;;70.32;21.20;;;;;;;5.52;100.00;102828.03;6253376;22;20023;-89
2023/12/15 03:59:54;;;;;;;69.90;20.88;;;;;;;5.53;100.00;102825.19;6227059;22;20507;-89
2023/12/15 04:02:24;;;;;;;74.63;21.75;;;;;;;5.54;100.00;102834.16;6226269;22;20085;-89
2023/12/15 04:05:05;;;;;;;79.07;22.10;;;;;;;5.55;100.00;102835.84;6250889;22;20349;-90
2023/12/15 04:07:30;;;;;;;80.35;22.08;;;;;;;5.58;100.00;102832.88;6250736;22;20019;-89
2023/12/15 04:10:01;;;;;;;77.47;21.67;;;;;;;5.59;100.00;102842.66;6250935;22;20326;-89
2023/12/15 04:12:34;;;;;;;85.78;22.58;;;;;;;5.60;100.00;102841.69;6251416;22;20043;-89
2023/12/15 04:15:04;;;;;;;76.65;21.10;;;;;;;5.60;100.00;102845.22;6250661;22;20313;-89
2023/12/15 04:17:34;;;;;;;81.85;22.85;;;;;;;5.61;100.00;102855.03;6225281;22;20129;-89
2023/12/15 04:20:03;;;;;;;95.03;25.17;;;;;;;5.63;100.00;102852.19;6200627;22;20008;-89
2023/12/15 04:22:29;;;;;;;81.75;21.95;;;;;;;5.64;100.00;102843.13;6224579;22;20448;-89
2023/12/15 04:24:57;;;;;;;93.60;25.93;;;;;;;5.66;100.00;102846.53;6250177;22;20011;-89
2023/12/15 04:27:25;;;;;;;85.78;22.63;;;;;;;5.68;100.00;102849.09;6225526;22;20004;-89
2023/12/15 04:29:50;;;;;;;94.25;25.75;;;;;;;5.70;100.00;102850.69;6250631;22;20016;-89
2023/12/15 04:32:19;;;;;;;98.43;24.80;;;;;;;5.71;100.00;102856.91;6277521;22;20011;-89
2023/12/15 04:34:47;;;;;;;90.65;24.35;;;;;;;5.75;100.00;102864.56;6277480;22;20426;-89
2023/12/15 04:37:12;;;;;;;94.45;24.52;;;;;;;5.74;100.00;102870.09;6251368;22;20085;-90
2023/12/15 04:39:40;;;;;;;96.97;25.00;;;;;;;5.73;100.00;102863.88;6251262;22;20004;-90
2023/12/15 04:42:10;;;;;;;100.65;25.55;;;;;;;5.76;100.00;102868.16;6276945;22;20042;-90
2023/12/15 04:44:36;;;;;;;104.97;24.85;;;;;;;5.77;100.00;102876.09;6249894;22;20448;-90
2023/12/15 04:47:25;;;;;;;100.60;25.97;;;;;;;5.75;100.00;102867.28;6250365;22;20043;-90
2023/12/15 04:49:53;;;;;;;94.45;25.45;;;;;;;5.77;100.00;102862.63;6250619;22;20011;-90
2023/12/15 04:52:19;;;;;;;99.10;25.55;;;;;;;5.76;100.00;102865.44;6250104;22;20014;-90
2023/12/15 04:54:48;;;;;;;96.35;23.27;;;;;;;5.75;100.00;102866.44;6250612;22;20078;-90
2023/12/15 04:57:13;;;;;;;84.22;23.98;;;;;;;5.79;100.00;102884.03;6277146;22;20019;-90
2023/12/15 04:59:41;;;;;;;95.90;25.25;;;;;;;5.80;100.00;102891.13;6250536;22;20011;-90
2023/12/15 05:02:11;;;;;;;87.03;24.08;;;;;;;5.84;100.00;102899.78;6249996;22;20038;-91
2023/12/15 05:04:43;;;;;;;98.07;24.77;;;;;;;5.85;100.00;102902.34;6226742;22;20016;-90
2023/12/15 05:07:11;;;;;;;89.70;24.98;;;;;;;5.84;100.00;102892.56;6250289;22;20012;-90
2023/12/15 05:09:37;;;;;;;100.85;26.13;;;;;;;5.86;100.00;102889.72;6250122;22;20020;-90
2023/12/15 05:12:03;;;;;;;99.07;26.17;;;;;;;5.85;100.00;102886.19;6250330;22;20057;-90
2023/12/15 05:14:28;;;;;;;107.78;27.73;;;;;;;5.85;100.00;102893.44;6249771;22;20040;-90
2023/12/15 05:16:56;;;;;;;93.63;25.87;;;;;;;5.84;100.00;102897.94;6249829;22;20392;-89
2023/12/15 05:19:21;;;;;;;95.25;25.05;;;;;;;5.85;100.00;102888.03;6251528;22;20012;-89
2023/12/15 05:21:47;;;;;;;106.60;26.90;;;;;;;5.87;100.00;102883.38;6252528;22;20014;-90
2023/12/15 05:24:13;;;;;;;104.97;27.87;;;;;;;5.87;100.00;102897.69;6226838;22;20346;-90
2023/12/15 05:26:40;;;;;;;96.68;25.88;;;;;;;5.87;100.00;102913.84;6226501;22;20242;-90
2023/12/15 05:29:13;;;;;;;107.13;26.25;;;;;;;5.88;100.00;102920.94;6226761;22;20011;-90
2023/12/15 05:31:39;;;;;;;112.85;28.38;;;;;;;5.89;100.00;102917.28;6253030;22;20034;-90
2023/12/15 05:34:09;;;;;;;111.10;28.42;;;;;;;5.92;100.00;102925.09;6251458;22;20016;-90
2023/12/15 05:36:35;;;;;;;113.78;29.80;;;;;;;5.91;100.00;102927.91;6252136;22;20008;-90
2023/12/15 05:39:07;;;;;;;120.77;29.70;;;;;;;5.92;100.00;102925.09;6278856;22;20006;-90
2023/12/15 05:41:48;;;;;;;119.28;29.55;;;;;;;5.93;100.00;102934.84;6252253;22;20031;-90
2023/12/15 05:44:14;;;;;;;117.95;28.48;;;;;;;5.93;100.00;102945.63;6229462;22;20038;-90
2023/12/15 05:46:42;;;;;;;126.33;31.60;;;;;;;5.95;100.00;102945.53;6251599;22;20007;-90
2023/12/15 05:49:17;;;;;;;117.63;29.70;;;;;;;5.96;100.00;102953.47;6251525;22;20426;-90
2023/12/15 05:51:47;;;;;;;131.10;31.40;;;;;;;5.99;100.00;102956.91;6252189;22;20069;-90
2023/12/15 05:54:18;;;;;;;121.25;31.73;;;;;;;6.01;100.00;102957.63;6251421;22;20426;-90
2023/12/15 05:56:44;;;;;;;118.50;29.27;;;;;;;6.00;100.00;102959.47;6252280;22;20007;-90
2023/12/15 05:59:17;;;;;;;126.90;32.57;;;;;;;6.01;100.00;102954.94;6251645;22;20085;-90
2023/12/15 06:01:45;;;;;;;127.30;31.95;;;;;;;6.01;100.00;102946.84;6227162;22;20492;-90
2023/12/15 06:04:11;;;;;;;126.85;31.67;;;;;;;6.02;100.00;102944.00;6251625;22;20482;-89
2023/12/15 06:06:36;;;;;;;129.13;32.97;;;;;;;6.01;100.00;102936.94;6251831;22;20034;-90
2023/12/15 06:09:02;;;;;;;115.70;31.20;;;;;;;6.03;100.00;102942.19;6281132;22;20035;-90
2023/12/15 06:11:28;;;;;;;133.33;32.43;;;;;;;6.02;100.00;102927.84;6252895;22;20003;-90
2023/12/15 06:13:56;;;;;;;125.50;32.43;;;;;;;6.03;100.00;102929.56;6252431;22;20008;-91
2023/12/15 06:16:22;;;;;;;124.40;30.10;;;;;;;6.04;100.00;102942.06;6253289;22;20016;-91
2023/12/15 06:18:48;;;;;;;124.17;31.83;;;;;;;6.05;100.00;102937.50;6252772;22;20333;-90
2023/12/15 06:21:26;;;;;;;131.18;31.50;;;;;;;6.06;100.00;102948.16;6251741;22;20716;-90
2023/12/15 06:23:55;;;;;;;117.30;30.52;;;;;;;6.09;100.00;102955.97;6251383;22;20042;-90
2023/12/15 06:26:22;;;;;;;131.65;33.25;;;;;;;6.09;100.00;102968.59;6252026;22;20091;-93
2023/12/15 06:28:48;;;;;;;124.45;32.38;;;;;;;6.10;100.00;102954.16;6252341;22;20417;-92
2023/12/15 06:31:15;;;;;;;124.83;31.90;;;;;;;6.12;100.00;102955.69;6252197;22;20054;-92
2023/12/15 06:33:41;;;;;;;125.47;32.08;;;;;;;6.12;100.00;102962.94;6252401;22;20023;-92
2023/12/15 06:36:10;;;;;;;131.93;33.90;;;;;;;6.14;100.00;102977.13;6254146;22;20178;-93
2023/12/15 06:38:37;;;;;;;122.38;32.22;;;;;;;6.15;100.00;102984.22;6251760;22;20067;-93
2023/12/15 06:41:14;;;;;;;123.22;31.48;;;;;;;6.16;100.00;102980.56;6252294;22;20004;-92
2023/12/15 06:43:45;;;;;;;135.33;35.90;;;;;;;6.18;100.00;102981.28;6251773;22;20010;-88
2023/12/15 06:46:11;;;;;;;133.27;33.22;;;;;;;6.25;100.00;102985.13;6251152;22;20008;-90
2023/12/15 06:48:37;;;;;;;115.25;31.30;;;;;;;6.29;100.00;102983.03;6250902;22;20031;-88
2023/12/15 06:51:04;;;;;;;125.33;31.90;;;;;;;6.29;100.00;102981.19;6277871;22;20000;-89
2023/12/15 06:53:30;;;;;;;130.68;34.15;;;;;;;6.30;100.00;102984.72;6251523;22;20726;-92
2023/12/15 06:55:55;;;;;;;132.13;33.22;;;;;;;6.28;100.00;102989.41;6226139;22;20007;-88
2023/12/15 06:58:21;;;;;;;114.57;31.67;;;;;;;6.29;100.00;102988.44;6251284;22;20011;-90
2023/12/15 07:00:49;;;;;;;125.63;32.80;;;;;;;6.27;100.00;102995.78;6250600;22;20039;-89
2023/12/15 07:03:25;;;;;;;120.65;33.13;;;;;;;6.28;100.00;103005.59;6199953;22;20007;-90
2023/12/15 07:05:50;;;;;;;124.25;32.17;;;;;;;6.28;100.00;103014.53;6226503;22;20057;-90
2023/12/15 07:08:31;;;;;;;125.77;32.87;;;;;;;6.29;100.00;103018.94;6225727;22;20012;-90
2023/12/15 07:10:57;;;;;;;119.78;31.88;;;;;;;6.31;100.00;103027.72;6228724;22;20020;-90
2023/12/15 07:13:51;;;;;;;129.23;32.50;;;;;;;6.33;100.00;103024.91;6252328;22;20027;-91
2023/12/15 07:16:28;;;;;;;118.55;32.78;;;;;;;6.35;100.00;103038.25;6212656;22;20077;-91
2023/12/15 07:19:01;;;;;;;128.68;32.42;;;;;;;6.34;100.00;103031.16;6229452;22;20124;-91
2023/12/15 07:21:29;;;;;;;111.78;32.03;;;;;;;6.34;100.00;103029.31;6251891;22;20465;-91
2023/12/15 07:24:03;;;;;;;121.40;30.98;;;;;;;6.31;100.00;103043.06;6225514;22;20019;-91
2023/12/15 07:26:43;;;;;;;126.28;31.48;;;;;;;6.30;100.00;103036.84;6250895;22;19999;-91
2023/12/15 07:29:27;;;;;;;;;;;;;;;;;;;;;
2023/12/15 07:31:55;;;;;;;114.30;31.90;;;;;;;6.34;100.00;103064.38;6254327;22;20381;-91
2023/12/15 07:34:23;;;;;;;112.72;30.05;;;;;;;6.31;100.00;103052.00;6235428;22;20040;-90
2023/12/15 07:36:55;;;;;;;112.45;30.30;;;;;;;6.32;100.00;103042.94;6222310;23;20008;-90
2023/12/15 07:39:21;;;;;;;108.10;30.15;;;;;;;6.33;100.00;103054.56;6221051;23;20074;-90
2023/12/15 07:41:57;;;;;;;115.78;30.67;;;;;;;6.33;100.00;103073.44;6220608;23;20143;-90
2023/12/15 07:44:23;;;;;;;111.10;32.30;;;;;;;6.34;100.00;103066.22;6194782;23;20426;-90
2023/12/15 07:46:51;;;;;;;116.03;31.77;;;;;;;6.35;100.00;103076.88;6245989;23;20019;-90
2023/12/15 07:49:34;;;;;;;124.90;32.63;;;;;;;6.38;100.00;103064.94;6220795;23;20012;-91
2023/12/15 07:51:59;;;;;;;112.43;31.42;;;;;;;6.36;100.00;103062.38;6199641;23;20016;-89
2023/12/15 07:54:33;;;;;;;107.65;31.08;;;;;;;6.38;100.00;103063.13;6219830;23;20012;-89
2023/12/15 07:57:04;;;;;;;115.40;31.92;;;;;;;6.39;100.00;103072.94;6195974;23;20482;-90
2023/12/15 07:59:35;;;;;;;114.10;29.75;;;;;;;6.41;100.00;103083.56;6219794;23;20054;-89
2023/12/15 08:02:02;;;;;;;112.70;31.08;;;;;;;6.42;100.00;103078.06;6243764;23;20070;-89
2023/12/15 08:04:30;;;;;;;116.53;32.33;;;;;;;6.43;100.00;103082.44;6219935;23;20004;-89
2023/12/15 08:07:00;;;;;;;112.40;30.90;;;;;;;6.45;100.00;103083.19;6220179;23;20000;-89
2023/12/15 08:09:35;;;;;;;120.68;31.17;;;;;;;6.44;100.00;103091.41;6220110;23;20012;-89
2023/12/15 08:12:01;;;;;;;114.13;30.92;;;;;;;6.46;100.00;103094.81;6196086;23;20051;-89
2023/12/15 08:14:34;;;;;;;109.90;29.50;;;;;;;6.48;100.00;103091.00;6246851;23;20062;-89
2023/12/15 08:17:07;;;;;;;104.90;31.20;;;;;;;6.49;100.00;103108.88;6220314;23;20065;-89
2023/12/15 08:19:44;;;;;;;101.95;30.50;;;;;;;6.50;100.00;103118.69;6248093;23;20000;-89
2023/12/15 08:22:31;;;;;;;110.77;30.07;;;;;;;6.49;100.00;103106.16;6196537;23;20051;-89
2023/12/15 08:24:56;;;;;;;102.43;29.38;;;;;;;6.49;100.00;103124.19;6194459;23;20019;-89
2023/12/15 08:27:39;;;;;;;;;;;;;;;;;;;;;
2023/12/15 08:30:14;;;;;;;102.10;29.52;;;;;;;6.51;100.00;103119.56;6247470;23;20076;-89
2023/12/15 08:33:08;;;;;;;;;;;;;;;;;;;;;
2023/12/15 08:35:36;;;;;;;105.03;28.38;;;;;;;6.54;100.00;103130.06;6247292;23;20179;-90
2023/12/15 08:38:12;;;;;;;101.10;28.83;;;;;;;6.58;100.00;103142.28;6219706;23;20069;-89
2023/12/15 08:40:43;;;;;;;95.95;27.90;;;;;;;6.61;100.00;103154.66;6219199;23;20043;-89
2023/12/15 08:43:13;;;;;;;96.22;28.25;;;;;;;6.67;100.00;103157.69;6219446;23;20008;-89
2023/12/15 08:45:41;;;;;;;95.13;28.10;;;;;;;6.73;100.00;103169.81;6246787;23;20035;-89
2023/12/15 08:48:17;;;;;;;103.65;29.52;;;;;;;6.79;100.00;103171.09;6169501;23;20016;-94
2023/12/15 08:50:45;;;;;;;101.82;28.23;;;;;;;6.85;100.00;103176.81;6219488;23;20011;-90
2023/12/15 08:53:12;;;;;;;99.03;28.40;;;;;;;6.84;100.00;103188.59;6248466;23;20000;-89
2023/12/15 08:55:59;;;;;;;;;;;;;;;;;;;;;
2023/12/15 08:58:32;;;;;;;86.07;26.65;;;;;;;6.93;100.00;103186.94;6250102;23;20082;-90
2023/12/15 09:01:00;;;;;;;83.60;27.45;;;;;;;6.95;100.00;103182.28;6223942;23;20016;-89
2023/12/15 09:03:31;;;;;;;82.90;26.10;;;;;;;6.97;100.00;103187.53;6222751;23;20008;-90
2023/12/15 09:05:59;;;;;;;78.78;25.48;;;;;;;6.96;100.00;103192.06;6198727;23;20012;-89
2023/12/15 09:08:27;;;;;;;73.50;25.70;;;;;;;6.96;100.00;103185.81;6197918;23;20043;-89
2023/12/15 09:11:03;;;;;;;76.13;24.63;;;;;;;6.99;100.00;103191.78;6222315;23;20090;-89
2023/12/15 09:13:38;;;;;;;81.60;26.30;;;;;;;7.00;100.00;103188.13;6250053;23;20118;-89
2023/12/15 09:16:06;;;;;;;78.57;25.25;;;;;;;7.04;100.00;103183.28;6197460;23;20055;-90
2023/12/15 09:18:31;;;;;;;63.75;23.52;;;;;;;7.02;100.00;103188.81;6222102;23;20016;-89
2023/12/15 09:20:57;;;;;;;72.18;24.25;;;;;;;7.02;100.00;103193.38;6222336;23;20511;-90
2023/12/15 09:23:41;;;;;;;76.07;24.53;;;;;;;7.05;100.00;103200.38;6222655;23;20376;-89
2023/12/15 09:26:21;;;;;;;68.68;25.05;;;;;;;7.03;100.00;103205.91;6197296;23;20016;-89
2023/12/15 09:28:46;;;;;;;70.93;23.45;;;;;;;7.06;100.00;103213.72;6222376;23;20012;-89
2023/12/15 09:31:12;;;;;;;63.73;23.53;;;;;;;7.09;100.00;103216.16;6222361;23;20082;-89
2023/12/15 09:33:45;;;;;;;68.65;24.25;;;;;;;7.10;100.00;103223.28;6227192;22;20020;-89
2023/12/15 09:43:04;;;;;;;65.70;22.98;;;;;;;7.12;100.00;103250.13;6208667;22;20381;-83
2023/12/15 09:45:30;;;;;;;62.75;22.67;;;;;;;7.13;100.00;103259.91;6253361;22;20008;-84
2023/12/15 09:47:56;;;;;;;64.38;22.35;;;;;;;7.13;100.00;103251.81;6228156;22;20054;-84
2023/12/15 09:50:25;;;;;;;63.40;21.90;;;;;;;7.14;100.00;103264.34;6227727;22;20019;-84
2023/12/15 09:52:51;;;;;;;56.40;20.88;;;;;;;7.11;100.00;103268.16;6252330;22;20047;-84
2023/12/15 09:55:17;;;;;;;55.63;20.33;;;;;;;7.12;100.00;103279.84;6253617;22;20018;-84
2023/12/15 09:57:43;;;;;;;61.08;21.85;;;;;;;7.12;100.00;103280.66;6252079;22;20015;-84
2023/12/15 10:00:09;;;;;;;56.78;20.88;;;;;;;7.13;100.00;103281.53;6228042;22;20094;-87
2023/12/15 10:02:36;;;;;;;53.77;21.00;;;;;;;7.13;100.00;103282.41;6252780;22;20003;-84
2023/12/15 10:05:02;;;;;;;50.80;19.10;;;;;;;7.18;100.00;103282.84;6226163;22;20011;-84
2023/12/15 10:07:28;;;;;;;55.22;20.88;;;;;;;7.20;100.00;103282.69;6252032;22;20047;-84
2023/12/15 10:09:54;;;;;;;57.10;20.75;;;;;;;7.23;100.00;103289.69;6250999;22;20012;-84
2023/12/15 10:12:19;;;;;;;55.37;19.27;;;;;;;7.22;100.00;103299.66;6226116;22;20161;-85
2023/12/15 10:14:45;;;;;;;51.08;19.83;;;;;;;7.20;100.00;103299.78;6278094;22;20303;-85
2023/12/15 10:17:11;;;;;;;49.97;18.67;;;;;;;7.18;100.00;103303.59;6226539;22;20508;-85
2023/12/15 10:19:37;;;;;;;52.10;17.98;;;;;;;7.18;100.00;103307.13;6251952;22;20089;-85
2023/12/15 10:22:04;;;;;;;52.88;18.70;;;;;;;7.16;100.00;103305.56;6278843;22;20083;-85
2023/12/15 10:24:33;;;;;;;58.40;18.90;;;;;;;7.20;100.00;103304.31;6251565;22;20397;-84
2023/12/15 10:27:03;;;;;;;50.33;19.17;;;;;;;7.22;100.00;103317.66;6225580;22;20020;-85
2023/12/15 10:29:29;;;;;;;50.28;19.35;;;;;;;7.29;100.00;103330.53;6251227;22;20069;-84
2023/12/15 10:31:54;;;;;;;55.38;19.92;;;;;;;7.34;100.00;103330.13;6250557;22;20443;-84
2023/12/15 10:34:24;;;;;;;58.37;19.23;;;;;;;7.38;100.00;103331.56;6200249;22;20390;-84
2023/12/15 10:36:50;;;;;;;48.22;18.55;;;;;;;7.43;100.00;103340.13;6251254;22;20004;-85
2023/12/15 10:39:17;;;;;;;49.20;18.52;;;;;;;7.46;100.00;103345.25;6251205;22;20115;-84
2023/12/15 10:41:44;;;;;;;46.47;18.00;;;;;;;7.52;100.00;103346.56;6251837;22;20014;-84
2023/12/15 10:44:13;;;;;;;47.45;18.70;;;;;;;7.57;100.00;103338.06;6225597;22;20008;-84
2023/12/15 10:46:43;;;;;;;48.75;17.80;;;;;;;7.59;100.00;103346.88;6251170;22;20364;-84
2023/12/15 10:52:52;;;;;;;43.90;17.27;;;;;;;7.62;100.00;103352.00;6234739;22;20081;-84
2023/12/15 10:56:04;;;;;;;37.30;15.55;;;;;;;7.69;100.00;103356.75;6249641;22;20015;-84
2023/12/15 10:58:35;;;;;;;40.63;16.55;;;;;;;7.72;100.00;103364.59;6238175;22;20019;-84
2023/12/15 11:01:10;;;;;;;42.80;16.65;;;;;;;7.77;100.00;103364.19;6224300;22;20015;-84
2023/12/15 11:07:17;;;;;;;36.22;14.88;;;;;;;7.74;100.00;103386.09;6260959;22;20357;-84
2023/12/15 11:13:32;;;;;;;36.13;14.40;;;;;;;7.67;100.00;103390.31;6255298;22;20499;-84
2023/12/15 11:16:13;;;;;;;42.92;15.25;;;;;;;7.66;100.00;103392.16;6257531;22;20019;-84
2023/12/15 11:21:36;;;;;;;36.28;14.43;;;;;;;7.72;100.00;103391.63;6254627;22;20030;-84
2023/12/15 11:24:04;;;;;;;37.20;13.50;;;;;;;7.76;100.00;103400.31;6277599;22;19999;-84
2023/12/15 11:26:35;;;;;;;37.10;13.52;;;;;;;7.78;100.00;103406.44;6250011;22;20298;-84
2023/12/15 11:29:11;;;;;;;34.63;12.75;;;;;;;7.81;100.00;103405.31;6225511;22;20365;-84
2023/12/15 11:31:42;;;;;;;31.42;12.77;;;;;;;7.88;100.00;103404.66;6251410;22;20011;-84
2023/12/15 11:34:08;;;;;;;31.10;12.82;;;;;;;7.94;100.00;103403.22;6250169;22;20110;-84
2023/12/15 11:36:44;;;;;;;30.77;12.68;;;;;;;7.95;100.00;103393.28;6226617;22;20008;-83
2023/12/15 11:39:14;;;;;;;37.17;11.82;;;;;;;8.01;100.00;103393.59;6249886;22;20107;-84
2023/12/15 11:41:44;;;;;;;35.00;11.32;;;;;;;8.07;100.00;103379.56;6250063;22;20003;-84
2023/12/15 11:44:10;;;;;;;36.50;11.57;;;;;;;8.11;100.00;103374.72;6250764;22;20422;-87